Карточка аэропорта UHMA

Внимание!
Информация на этой странице в стадии наполнения.
Если вы не увидели какой-то информации, или заметили неточность - пожалуйста сообщите нам!
Спасибо!
Команда RU-STAFF
Название аэропортаУгольный
Название аэропорта (англ.)Ugolny
Превышение194 ft. (59.1 m.)
Координаты64°44.1', 177°44.28'
Высота перехода1600m
Эшелон переходаQFE>=755mm:FL070; QFE<755=>728:FL080; QFE<728:FL090
Коды ответчика6501-6537
Зона ОрВДМагадан РПИ (UHMM)
Данные METARUHMA 271100Z 05006MPS 350V080 4300 -SN BKN009 OVC017 M13/M16 Q1032 RESN R01/////// NOSIG RMK TDZ R01/05006G09MPS END R01/34002G03MPS QFE770/1027
Проноз погоды (TAF)UHMA 270750Z 2709/2809 09008G15MPS 6000 -SN DRSN BKN020 TEMPO 2709/2809 03003G10MPS 1100 SN BR BKN003 BKN015
NOTAMshow/hide NOTAM
AWOS   TABLE

Информация о ВПП


Диспетчерские позиции

Позывной Наименование органа УВД Частота
UHMA_APPАнадырь-Подход124.0
UHMA_TWRАнадырь-Старт124.0



Спутниковое изображение